KANK

Harriet Alexander Field Airport

Salida, Colorado, USA
METAR KANK 251855Z AUTO 24013G18KT 10SM CLR 23/M17 A3029 RMK AO1 T02251173
Observed Flight Rules
Sep-25 @ 18:55 UTC (7 minutes ago) Visual Flight Rules
Wind Visibility Clouds
240° at 13 knots
 Gusting to 18 knots
10 miles
  • Clear skies
Temperatures Readings
Current 23°C / 73°F
Dewpoint -17°C / 1°F
Humidity 6%
Altimeter 30.29" Hg
Pressure 1026 hPa
Elevation 2293
METAR KANK 251855Z AUTO 24013G18KT 10SM CLR 23/M17 A3029 RMK AO1 T02251173
Observed Flight Rules
Sep-25 @ 18:55 UTC
(7 minutes ago)
VFR
Wind Visibility
240° at 13 knots
 Gusting to 18 knots
10 miles
Clouds
  • Clear skies
Temperature Dewpoint
23°C / 73°F -17°C / 1°F
Humidity Altimeter Pressure
6% 30.29" Hg 1026 hPa